createdAt,value
2022-10-10T00:01:36.924Z,77.82
2022-10-10T00:04:06.350Z,77.77
2022-10-10T00:06:35.344Z,77.75
2022-10-10T00:09:05.673Z,77.57
2022-10-10T00:11:34.879Z,77.61
2022-10-10T00:14:03.599Z,77.60
2022-10-10T00:16:32.294Z,77.71
2022-10-10T00:19:01.087Z,77.79
2022-10-10T00:21:31.276Z,77.77
2022-10-10T00:24:00.513Z,77.87
2022-10-10T00:26:29.482Z,77.94
2022-10-10T00:28:58.273Z,78.12
2022-10-10T00:31:27.494Z,78.13
2022-10-10T00:33:56.157Z,78.31
2022-10-10T00:36:24.784Z,78.64
2022-10-10T00:38:53.484Z,78.44
2022-10-10T00:41:23.486Z,78.61
2022-10-10T00:44:03.502Z,78.41
2022-10-10T00:46:32.235Z,78.82
2022-10-10T00:49:02.111Z,79.00
2022-10-10T00:51:31.205Z,78.87
2022-10-10T00:54:03.974Z,78.93
2022-10-10T00:56:37.437Z,79.08
2022-10-10T00:59:10.507Z,79.01
2022-10-10T01:01:40.724Z,79.16
2022-10-10T01:04:31.081Z,79.18
2022-10-10T01:07:01.598Z,79.44
2022-10-10T01:09:31.046Z,79.49
2022-10-10T01:12:12.100Z,79.72
2022-10-10T01:14:47.596Z,79.88
2022-10-10T01:17:28.620Z,80.20
2022-10-10T01:20:29.611Z,80.20
2022-10-10T01:23:23.554Z,80.31
2022-10-10T01:26:08.221Z,80.36
2022-10-10T01:28:43.671Z,80.26
2022-10-10T01:31:15.977Z,80.55
2022-10-10T01:33:54.817Z,80.28
2022-10-10T01:36:32.281Z,80.16
2022-10-10T01:39:07.446Z,79.99
2022-10-10T01:41:43.018Z,80.00
2022-10-10T01:44:11.711Z,80.06
2022-10-10T01:46:40.710Z,80.13
2022-10-10T01:49:09.537Z,79.94
2022-10-10T01:51:53.612Z,80.00
2022-10-10T01:54:34.739Z,80.14
2022-10-10T01:57:19.219Z,80.18
2022-10-10T01:59:57.350Z,80.45
2022-10-10T02:02:36.076Z,80.29
2022-10-10T02:05:12.474Z,80.47
2022-10-10T02:07:47.990Z,80.51
2022-10-10T02:10:21.811Z,80.32
2022-10-10T02:12:51.582Z,80.63
2022-10-10T02:15:24.875Z,80.65
2022-10-10T02:17:56.116Z,80.80
2022-10-10T02:20:27.664Z,80.98
2022-10-10T02:22:56.681Z,80.90
2022-10-10T02:25:31.583Z,80.96
2022-10-10T02:28:10.860Z,80.96
2022-10-10T02:30:44.543Z,81.20
2022-10-10T02:33:19.385Z,81.26
2022-10-10T02:35:50.920Z,81.22
2022-10-10T02:38:20.512Z,81.50
2022-10-10T02:40:50.263Z,81.80
2022-10-10T02:43:20.107Z,81.75
2022-10-10T02:45:48.958Z,81.84
2022-10-10T02:48:17.830Z,82.15
2022-10-10T02:50:46.725Z,82.10
2022-10-10T02:53:15.415Z,82.44
2022-10-10T02:55:44.482Z,82.31
2022-10-10T02:58:13.630Z,82.37
2022-10-10T03:00:42.637Z,82.82
2022-10-10T03:03:11.394Z,82.86
2022-10-10T03:05:40.159Z,83.06
2022-10-10T03:08:11.702Z,83.01
2022-10-10T03:10:41.218Z,83.14
2022-10-10T03:13:09.964Z,82.93
2022-10-10T03:15:38.740Z,82.96
2022-10-10T03:18:07.421Z,83.11
2022-10-10T03:20:36.266Z,83.15
2022-10-10T03:23:05.027Z,83.03
2022-10-10T03:25:34.360Z,82.90
2022-10-10T03:28:03.161Z,83.00
2022-10-10T03:30:31.984Z,83.06
2022-10-10T03:33:00.685Z,82.95
2022-10-10T03:35:29.507Z,83.04
2022-10-10T03:37:58.974Z,82.94
2022-10-10T03:40:28.951Z,82.90
2022-10-10T03:42:57.891Z,82.64
2022-10-10T03:45:26.864Z,82.54
2022-10-10T03:47:55.549Z,82.48
2022-10-10T03:50:24.267Z,82.51
2022-10-10T03:52:53.170Z,82.42
2022-10-10T03:55:22.219Z,82.53
2022-10-10T03:57:51.049Z,82.61
2022-10-10T04:00:20.099Z,82.71
2022-10-10T04:02:48.972Z,82.72
2022-10-10T04:05:18.061Z,82.94
2022-10-10T04:07:46.790Z,82.87
2022-10-10T04:10:15.600Z,82.60
2022-10-10T04:12:44.559Z,82.50
2022-10-10T04:15:13.238Z,82.59
2022-10-10T04:17:42.170Z,82.49
2022-10-10T04:20:11.149Z,82.54
2022-10-10T04:22:40.092Z,82.37
2022-10-10T04:25:10.097Z,82.29
2022-10-10T04:27:39.661Z,82.31
2022-10-10T04:30:10.793Z,82.33
2022-10-10T04:32:39.888Z,82.42
2022-10-10T04:35:10.143Z,82.56
2022-10-10T04:37:39.294Z,82.68
2022-10-10T04:40:10.558Z,82.59
2022-10-10T04:42:39.414Z,82.69
2022-10-10T04:45:10.136Z,82.87
2022-10-10T04:47:39.082Z,82.96
2022-10-10T04:50:09.286Z,82.94
2022-10-10T04:52:38.379Z,83.08
2022-10-10T04:55:08.269Z,82.86
2022-10-10T04:57:37.276Z,82.76
2022-10-10T05:00:08.678Z,82.71
2022-10-10T05:02:37.736Z,82.59
2022-10-10T05:05:08.894Z,82.47
2022-10-10T05:07:38.085Z,82.33
2022-10-10T05:10:09.227Z,82.45
2022-10-10T05:12:38.322Z,82.35
2022-10-10T05:15:08.789Z,81.88
2022-10-10T05:17:37.691Z,81.76
2022-10-10T05:20:08.647Z,81.85
2022-10-10T05:22:37.956Z,81.56
2022-10-10T05:25:08.825Z,81.36
2022-10-10T05:27:37.593Z,81.24
2022-10-10T05:30:08.554Z,81.20
2022-10-10T05:32:37.410Z,81.21
2022-10-10T05:35:08.559Z,81.14
2022-10-10T05:37:38.198Z,80.98
2022-10-10T05:40:09.303Z,81.12
2022-10-10T05:42:38.294Z,80.85
2022-10-10T05:45:08.977Z,80.57
2022-10-10T05:47:37.984Z,80.18
2022-10-10T05:50:17.343Z,79.54
2022-10-10T05:52:46.120Z,79.09
2022-10-10T05:55:15.060Z,78.59
2022-10-10T05:57:44.069Z,78.29
2022-10-10T06:00:14.738Z,78.06
2022-10-10T06:02:43.626Z,77.38
2022-10-10T06:05:12.883Z,77.18
2022-10-10T06:08:03.424Z,76.57
2022-10-10T06:10:33.556Z,76.23
2022-10-10T06:13:02.466Z,75.33
2022-10-10T06:15:31.614Z,74.69
2022-10-10T06:18:00.595Z,73.37
2022-10-10T06:20:29.426Z,72.49
2022-10-10T06:22:58.645Z,71.56
2022-10-10T06:25:40.083Z,70.45
2022-10-10T06:28:10.005Z,69.55
2022-10-10T06:30:42.050Z,68.67
2022-10-10T06:33:12.728Z,67.47
2022-10-10T06:35:43.079Z,66.61
2022-10-10T06:38:12.330Z,65.69
2022-10-10T06:40:42.385Z,64.86
2022-10-10T06:43:13.393Z,63.81
2022-10-10T06:45:43.768Z,62.65
2022-10-10T06:48:15.059Z,62.26
2022-10-10T06:50:44.074Z,61.75
2022-10-10T06:53:13.246Z,61.50
2022-10-10T06:55:47.459Z,60.59
2022-10-10T06:58:16.219Z,59.21
2022-10-10T07:00:50.819Z,57.87
2022-10-10T07:03:20.001Z,57.13
2022-10-10T07:05:53.635Z,56.52
2022-10-10T07:08:22.728Z,54.59
2022-10-10T07:10:51.880Z,54.60
2022-10-10T07:13:21.158Z,54.21
2022-10-10T07:15:50.223Z,53.64
2022-10-10T07:18:19.914Z,52.29
2022-10-10T07:20:49.583Z,52.13
2022-10-10T07:23:18.376Z,52.25
2022-10-10T07:25:47.300Z,52.18
2022-10-10T07:28:16.377Z,51.75
2022-10-10T07:30:46.362Z,51.10
2022-10-10T07:33:16.024Z,50.68
2022-10-10T07:35:53.931Z,49.05
2022-10-10T07:38:23.421Z,48.60
2022-10-10T07:40:52.630Z,48.19
2022-10-10T07:43:21.525Z,48.20
2022-10-10T07:45:51.979Z,48.49
2022-10-10T07:48:21.060Z,49.05
2022-10-10T07:50:49.861Z,48.78
2022-10-10T07:53:18.987Z,49.26
2022-10-10T07:55:47.872Z,49.29
2022-10-10T07:58:17.018Z,49.68
2022-10-10T08:00:45.846Z,50.41
2022-10-10T08:03:16.066Z,50.37
2022-10-10T08:05:46.490Z,50.68
2022-10-10T08:08:17.611Z,51.44
2022-10-10T08:10:46.299Z,51.46
2022-10-10T08:13:15.030Z,50.86
2022-10-10T08:15:43.843Z,50.32
2022-10-10T08:18:12.493Z,49.16
2022-10-10T08:20:41.269Z,48.41
2022-10-10T08:23:10.011Z,48.91
2022-10-10T08:25:38.818Z,49.15
2022-10-10T08:28:07.609Z,48.64
2022-10-10T08:30:41.318Z,48.07
2022-10-10T08:33:10.162Z,48.79
2022-10-10T08:35:39.568Z,49.66
2022-10-10T08:38:08.762Z,50.32
2022-10-10T08:40:45.253Z,50.58
2022-10-10T08:43:21.902Z,50.30
2022-10-10T08:45:52.929Z,49.71
2022-10-10T08:48:26.847Z,49.38
2022-10-10T08:50:59.843Z,49.09
2022-10-10T08:53:32.001Z,49.27
2022-10-10T08:56:01.490Z,49.19
2022-10-10T08:58:33.975Z,48.89
2022-10-10T09:01:11.199Z,48.91
2022-10-10T09:03:46.252Z,49.52
2022-10-10T09:06:40.800Z,49.63
2022-10-10T09:09:19.745Z,48.92
2022-10-10T09:11:59.736Z,48.97
2022-10-10T09:14:37.616Z,49.12
2022-10-10T09:17:17.018Z,49.34
2022-10-10T09:19:57.788Z,49.38
2022-10-10T09:22:33.136Z,48.87
2022-10-10T09:25:06.569Z,48.40
2022-10-10T09:27:41.802Z,48.50
2022-10-10T09:30:17.974Z,48.37
2022-10-10T09:32:52.420Z,48.11
2022-10-10T09:35:24.478Z,48.26
2022-10-10T09:37:57.653Z,48.89
2022-10-10T09:40:29.813Z,48.90
2022-10-10T09:42:59.116Z,49.63
2022-10-10T09:45:34.486Z,49.67
2022-10-10T09:48:03.622Z,49.91
2022-10-10T09:50:32.291Z,50.41
2022-10-10T09:53:01.136Z,50.43
2022-10-10T09:55:34.120Z,50.43
2022-10-10T09:58:16.531Z,50.63
2022-10-10T10:00:45.141Z,51.09
2022-10-10T10:03:16.725Z,50.91
2022-10-10T10:05:53.878Z,50.55
2022-10-10T10:08:26.507Z,49.85
2022-10-10T10:10:58.421Z,50.35
2022-10-10T10:13:30.816Z,51.06
2022-10-10T10:16:03.601Z,51.02
2022-10-10T10:18:40.074Z,50.52
2022-10-10T10:21:23.373Z,48.75
2022-10-10T10:23:55.530Z,48.64
2022-10-10T10:26:26.787Z,49.15
2022-10-10T10:28:57.448Z,49.04
2022-10-10T10:31:45.578Z,49.08
2022-10-10T10:34:39.892Z,49.46
2022-10-10T10:37:17.862Z,49.29
2022-10-10T10:39:55.307Z,49.45
2022-10-10T10:42:41.618Z,49.35
2022-10-10T10:45:17.056Z,49.30
2022-10-10T10:47:57.769Z,49.53
2022-10-10T10:50:44.094Z,50.09
2022-10-10T10:53:22.253Z,50.52
2022-10-10T10:56:03.892Z,50.07
2022-10-10T10:59:23.496Z,49.58
2022-10-10T11:01:56.058Z,49.95
2022-10-10T11:05:17.915Z,49.83
2022-10-10T11:07:47.723Z,49.10
2022-10-10T11:10:28.392Z,49.69
2022-10-10T11:13:10.378Z,49.63
2022-10-10T11:18:36.766Z,48.76
2022-10-10T11:21:10.674Z,49.20
2022-10-10T11:23:44.286Z,48.68
2022-10-10T11:26:21.944Z,48.82
2022-10-10T11:28:56.834Z,49.44
2022-10-10T11:31:32.190Z,49.41
2022-10-10T11:34:07.469Z,49.12
2022-10-10T11:36:41.322Z,49.01
2022-10-10T11:39:16.043Z,48.73
2022-10-10T11:41:51.549Z,48.69
2022-10-10T11:44:25.257Z,48.56
2022-10-10T11:47:00.081Z,48.94
2022-10-10T11:49:38.386Z,49.00
2022-10-10T11:52:33.467Z,48.59
2022-10-10T11:55:10.734Z,48.09
2022-10-10T11:57:46.237Z,48.00
2022-10-10T12:00:18.025Z,48.21
2022-10-10T12:02:49.351Z,48.44
2022-10-10T12:05:22.315Z,48.52
2022-10-10T12:08:04.672Z,48.57
2022-10-10T12:10:37.625Z,48.53
2022-10-10T12:13:24.755Z,48.85
2022-10-10T12:15:56.451Z,48.63
2022-10-10T12:18:29.488Z,48.39
2022-10-10T12:21:07.569Z,48.64
2022-10-10T12:23:37.363Z,48.99
2022-10-10T12:26:06.508Z,48.85
2022-10-10T12:28:56.748Z,49.09
2022-10-10T12:31:33.480Z,48.56
2022-10-10T12:34:16.981Z,48.26
2022-10-10T12:36:58.208Z,48.58
2022-10-10T12:39:38.654Z,49.07
2022-10-10T12:42:29.145Z,48.54
2022-10-10T12:44:58.536Z,48.34
2022-10-10T12:48:03.463Z,48.42
2022-10-10T12:50:27.364Z,48.68
2022-10-10T12:52:58.852Z,48.69
2022-10-10T12:55:31.667Z,48.62
2022-10-10T12:58:03.666Z,48.49
2022-10-10T13:00:41.282Z,48.40
2022-10-10T13:03:17.348Z,48.57
2022-10-10T13:05:48.792Z,48.75
2022-10-10T13:08:20.620Z,49.19
2022-10-10T13:11:06.451Z,49.29
2022-10-10T13:13:36.186Z,49.37
2022-10-10T13:16:11.607Z,49.35
2022-10-10T13:18:43.621Z,49.59
2022-10-10T13:21:14.961Z,49.49
2022-10-10T13:26:43.230Z,49.60
2022-10-10T13:29:23.955Z,49.74
2022-10-10T13:31:54.880Z,49.78
2022-10-10T13:34:27.438Z,50.11
2022-10-10T13:36:58.506Z,49.85
2022-10-10T13:39:28.938Z,49.32
2022-10-10T13:41:58.114Z,49.33
2022-10-10T13:44:33.925Z,49.37
2022-10-10T13:47:40.886Z,49.27
2022-10-10T13:50:20.483Z,48.91
2022-10-10T13:52:49.383Z,48.30
2022-10-10T13:55:24.811Z,48.15
2022-10-10T13:57:58.266Z,48.17
2022-10-10T14:00:32.416Z,48.08
2022-10-10T14:03:01.694Z,48.05
2022-10-10T14:05:32.109Z,48.18
2022-10-10T14:08:00.952Z,48.44
2022-10-10T14:10:35.341Z,48.45
2022-10-10T14:13:04.291Z,48.11
2022-10-10T14:15:43.183Z,47.96
2022-10-10T14:18:16.691Z,47.80
2022-10-10T14:20:46.256Z,47.54
2022-10-10T14:23:15.604Z,47.55
2022-10-10T14:25:46.569Z,47.80
2022-10-10T14:28:18.313Z,47.40
2022-10-10T14:30:47.424Z,47.39
2022-10-10T14:33:18.324Z,47.02
2022-10-10T14:35:49.370Z,47.26
2022-10-10T14:38:18.185Z,47.18
2022-10-10T14:40:49.590Z,47.54
2022-10-10T14:43:21.967Z,47.69
2022-10-10T14:45:52.466Z,47.44
2022-10-10T14:48:22.128Z,47.35
2022-10-10T14:50:51.324Z,47.33
2022-10-10T14:53:20.217Z,47.50
2022-10-10T14:55:52.550Z,47.68
2022-10-10T14:58:24.172Z,47.99
2022-10-10T15:00:53.809Z,48.07
2022-10-10T15:03:23.366Z,48.08
2022-10-10T15:05:52.341Z,48.30
2022-10-10T15:08:21.092Z,48.46
2022-10-10T15:10:49.805Z,48.82
2022-10-10T15:13:18.491Z,48.91
2022-10-10T15:15:48.090Z,48.98
2022-10-10T15:18:49.319Z,49.08
2022-10-10T15:21:10.479Z,49.24
2022-10-10T15:23:39.417Z,49.24
2022-10-10T15:26:08.170Z,49.17
2022-10-10T15:28:37.150Z,49.54
2022-10-10T15:31:07.162Z,49.83
2022-10-10T15:33:35.938Z,49.72
2022-10-10T15:36:09.399Z,49.74
2022-10-10T15:38:39.479Z,50.07
2022-10-10T15:41:09.901Z,50.15
2022-10-10T15:43:46.357Z,50.35
2022-10-10T15:46:15.046Z,50.50
2022-10-10T15:48:43.710Z,50.66
2022-10-10T15:51:12.710Z,50.84
2022-10-10T15:53:41.824Z,51.00
2022-10-10T15:56:16.719Z,51.29
2022-10-10T15:58:45.469Z,51.54
2022-10-10T16:01:16.698Z,51.80
2022-10-10T16:03:47.602Z,52.01
2022-10-10T16:06:19.573Z,52.28
2022-10-10T16:08:55.663Z,52.55
2022-10-10T16:11:33.132Z,52.86
2022-10-10T16:14:01.891Z,53.13
2022-10-10T16:16:31.331Z,53.39
2022-10-10T16:19:00.293Z,53.77
2022-10-10T16:21:29.281Z,54.03
2022-10-10T16:23:58.321Z,54.24
2022-10-10T16:26:30.142Z,54.62
2022-10-10T16:28:59.787Z,54.86
2022-10-10T16:31:29.513Z,55.07
2022-10-10T16:33:59.460Z,55.21
2022-10-10T16:36:30.276Z,55.50
2022-10-10T16:38:59.602Z,55.80
2022-10-10T16:41:47.063Z,55.98
2022-10-10T16:44:17.548Z,56.25
2022-10-10T16:46:46.488Z,56.39
2022-10-10T16:49:16.434Z,56.66
2022-10-10T16:51:45.736Z,56.95
2022-10-10T16:54:15.208Z,57.04
2022-10-10T16:56:44.099Z,57.25
2022-10-10T16:59:12.759Z,57.50
2022-10-10T17:01:44.894Z,57.59
2022-10-10T17:04:13.947Z,57.70
2022-10-10T17:06:42.820Z,57.95
2022-10-10T17:09:11.746Z,58.15
2022-10-10T17:11:41.110Z,58.20
2022-10-10T17:14:10.062Z,58.34
2022-10-10T17:19:28.325Z,58.77
2022-10-10T17:21:58.869Z,59.01
2022-10-10T17:24:27.709Z,59.04
2022-10-10T17:26:56.747Z,59.27
2022-10-10T17:29:25.846Z,59.35
2022-10-10T17:31:54.908Z,59.60
2022-10-10T17:34:24.128Z,59.54
2022-10-10T17:36:53.681Z,59.79
2022-10-10T17:39:22.410Z,59.89
2022-10-10T17:41:51.290Z,59.98
2022-10-10T17:44:20.194Z,60.07
2022-10-10T17:46:50.358Z,60.29
2022-10-10T17:49:19.620Z,60.45
2022-10-10T17:51:48.614Z,60.51
2022-10-10T17:54:17.756Z,60.59
2022-10-10T17:56:46.559Z,60.63
2022-10-10T17:59:15.689Z,60.69
2022-10-10T18:01:44.470Z,60.85
2022-10-10T18:04:15.401Z,60.81
2022-10-10T18:06:44.412Z,61.08
2022-10-10T18:09:13.260Z,61.02
2022-10-10T18:11:43.096Z,61.15
2022-10-10T18:14:12.009Z,61.22
2022-10-10T18:16:41.137Z,61.33
2022-10-10T18:19:10.762Z,61.39
2022-10-10T18:21:39.651Z,61.54
2022-10-10T18:24:09.738Z,61.74
2022-10-10T18:26:40.262Z,61.74
2022-10-10T18:29:09.213Z,62.00
2022-10-10T18:31:38.947Z,62.02
2022-10-10T18:34:08.427Z,62.02
2022-10-10T18:36:38.482Z,62.18
2022-10-10T18:39:11.155Z,62.17
2022-10-10T18:41:40.621Z,62.12
2022-10-10T18:44:12.829Z,62.38
2022-10-10T18:46:42.445Z,62.59
2022-10-10T18:49:13.937Z,62.64
2022-10-10T18:51:44.461Z,62.74
2022-10-10T18:54:15.416Z,62.92
2022-10-10T18:56:46.052Z,62.95
2022-10-10T18:59:16.800Z,63.07
2022-10-10T19:01:46.077Z,63.44
2022-10-10T19:04:16.408Z,63.44
2022-10-10T19:06:45.336Z,63.70
2022-10-10T19:09:17.160Z,63.72
2022-10-10T19:11:47.913Z,63.89
2022-10-10T19:14:18.198Z,64.15
2022-10-10T19:16:48.107Z,64.21
2022-10-10T19:19:19.580Z,64.59
2022-10-10T19:21:49.109Z,64.71
2022-10-10T19:24:20.418Z,64.92
2022-10-10T19:26:52.752Z,65.17
2022-10-10T19:29:21.643Z,65.29
2022-10-10T19:31:50.357Z,65.63
2022-10-10T19:34:19.114Z,65.67
2022-10-10T19:36:47.847Z,65.77
2022-10-10T19:39:16.578Z,65.74
2022-10-10T19:41:46.845Z,65.96
2022-10-10T19:44:15.527Z,65.90
2022-10-10T19:46:44.272Z,65.94
2022-10-10T19:49:13.047Z,66.27
2022-10-10T19:51:41.845Z,66.23
2022-10-10T19:54:10.668Z,66.35
2022-10-10T19:56:39.488Z,66.34
2022-10-10T19:59:08.605Z,66.60
2022-10-10T20:01:37.524Z,66.59
2022-10-10T20:04:06.678Z,66.69
2022-10-10T20:06:35.411Z,66.81
2022-10-10T20:09:08.361Z,66.96
2022-10-10T20:11:43.332Z,67.05
2022-10-10T20:14:11.978Z,67.23
2022-10-10T20:16:40.843Z,67.14
2022-10-10T20:19:09.530Z,67.17
2022-10-10T20:21:38.417Z,67.40
2022-10-10T20:24:09.927Z,67.63
2022-10-10T20:26:38.627Z,67.57
2022-10-10T20:29:08.169Z,67.62
2022-10-10T20:31:37.878Z,67.76
2022-10-10T20:34:07.334Z,67.84
2022-10-10T20:36:36.937Z,68.03
2022-10-10T20:39:08.878Z,68.10
2022-10-10T20:41:38.847Z,68.32
2022-10-10T20:44:10.386Z,68.54
2022-10-10T20:46:40.763Z,68.57
2022-10-10T20:49:13.871Z,68.79
2022-10-10T20:51:47.749Z,68.95
2022-10-10T20:54:18.043Z,69.01
2022-10-10T20:56:48.628Z,69.27
2022-10-10T20:59:18.112Z,69.53
2022-10-10T21:01:46.789Z,69.48
2022-10-10T21:04:15.733Z,69.50
2022-10-10T21:06:44.538Z,69.55
2022-10-10T21:09:14.742Z,69.79
2022-10-10T21:11:46.426Z,69.78
2022-10-10T21:14:17.727Z,69.88
2022-10-10T21:16:47.724Z,69.98
2022-10-10T21:19:16.845Z,69.97
2022-10-10T21:21:46.816Z,69.95
2022-10-10T21:24:15.667Z,70.17
2022-10-10T21:26:45.215Z,70.10
2022-10-10T21:29:13.867Z,70.24
2022-10-10T21:31:42.869Z,70.23
2022-10-10T21:34:15.108Z,70.34
2022-10-10T21:36:43.843Z,70.37
2022-10-10T21:39:12.807Z,70.56
2022-10-10T21:41:41.873Z,70.37
2022-10-10T21:44:11.293Z,70.52
2022-10-10T21:46:39.889Z,70.56
2022-10-10T21:49:11.008Z,70.62
2022-10-10T21:51:42.580Z,70.69
2022-10-10T21:54:11.749Z,70.72
2022-10-10T21:56:40.639Z,70.76
2022-10-10T21:59:10.092Z,70.94
2022-10-10T22:01:38.776Z,70.93
2022-10-10T22:04:07.536Z,70.95
2022-10-10T22:06:36.225Z,70.99
2022-10-10T22:09:05.732Z,70.88
2022-10-10T22:11:35.104Z,70.95
2022-10-10T22:14:04.164Z,70.97
2022-10-10T22:16:33.888Z,70.99
2022-10-10T22:19:03.679Z,70.84
2022-10-10T22:21:34.060Z,70.83
2022-10-10T22:24:06.459Z,70.80
2022-10-10T22:26:35.922Z,70.94
2022-10-10T22:29:05.113Z,70.80
2022-10-10T22:31:37.097Z,70.86
2022-10-10T22:34:05.967Z,70.72
2022-10-10T22:36:35.097Z,70.78
2022-10-10T22:39:04.281Z,70.79
2022-10-10T22:41:32.928Z,70.81
2022-10-10T22:44:02.577Z,70.92
2022-10-10T22:46:31.228Z,70.83
2022-10-10T22:48:59.906Z,70.77
2022-10-10T22:51:28.547Z,70.76
2022-10-10T22:53:57.247Z,70.82
2022-10-10T22:56:25.945Z,70.92
2022-10-10T22:58:54.617Z,71.00
2022-10-10T23:01:26.152Z,70.92
2022-10-10T23:03:56.430Z,71.00
2022-10-10T23:06:25.179Z,71.01
2022-10-10T23:08:54.527Z,71.19
2022-10-10T23:11:23.263Z,71.21
2022-10-10T23:13:52.202Z,71.19
2022-10-10T23:16:21.410Z,71.25
2022-10-10T23:18:50.074Z,71.28
2022-10-10T23:21:19.213Z,71.25
2022-10-10T23:23:47.986Z,71.27
2022-10-10T23:26:17.958Z,71.33
2022-10-10T23:28:48.901Z,71.37
2022-10-10T23:31:17.672Z,71.27
2022-10-10T23:33:46.339Z,71.43
2022-10-10T23:36:15.775Z,71.53
2022-10-10T23:38:44.656Z,71.52
2022-10-10T23:41:13.873Z,71.60
2022-10-10T23:43:42.671Z,71.53
2022-10-10T23:46:12.184Z,71.64
2022-10-10T23:48:40.764Z,71.67
2022-10-10T23:51:09.753Z,71.68
2022-10-10T23:53:38.637Z,71.84
2022-10-10T23:56:08.142Z,71.95
2022-10-10T23:58:37.320Z,71.94
